sensor_id;sensor_type;location;lat;lon;timestamp;P1;durP1;ratioP1;P2;durP2;ratioP2
19788;SDS011;10054;59.332;18.244;2022-07-23T00:01:43;17.10;;;8.03;;
19788;SDS011;10054;59.332;18.244;2022-07-23T00:04:13;14.35;;;6.97;;
19788;SDS011;10054;59.332;18.244;2022-07-23T00:06:42;13.88;;;7.00;;
19788;SDS011;10054;59.332;18.244;2022-07-23T00:09:10;11.67;;;7.13;;
19788;SDS011;10054;59.332;18.244;2022-07-23T00:11:39;16.37;;;7.00;;
19788;SDS011;10054;59.332;18.244;2022-07-23T00:14:08;15.07;;;6.90;;
19788;SDS011;10054;59.332;18.244;2022-07-23T00:16:37;20.65;;;8.28;;
19788;SDS011;10054;59.332;18.244;2022-07-23T00:19:05;16.63;;;7.33;;
19788;SDS011;10054;59.332;18.244;2022-07-23T00:21:34;15.27;;;7.20;;
19788;SDS011;10054;59.332;18.244;2022-07-23T00:24:03;15.97;;;7.30;;
19788;SDS011;10054;59.332;18.244;2022-07-23T00:26:32;14.50;;;6.97;;
19788;SDS011;10054;59.332;18.244;2022-07-23T00:29:01;20.97;;;7.80;;
19788;SDS011;10054;59.332;18.244;2022-07-23T00:31:29;15.55;;;7.97;;
19788;SDS011;10054;59.332;18.244;2022-07-23T00:33:58;16.12;;;7.50;;
19788;SDS011;10054;59.332;18.244;2022-07-23T00:36:29;19.23;;;8.05;;
19788;SDS011;10054;59.332;18.244;2022-07-23T00:38:59;22.67;;;7.13;;
19788;SDS011;10054;59.332;18.244;2022-07-23T00:41:28;19.25;;;8.00;;
19788;SDS011;10054;59.332;18.244;2022-07-23T00:44:13;20.82;;;7.97;;
19788;SDS011;10054;59.332;18.244;2022-07-23T00:46:49;18.02;;;7.80;;
19788;SDS011;10054;59.332;18.244;2022-07-23T00:49:14;20.55;;;8.53;;
19788;SDS011;10054;59.332;18.244;2022-07-23T00:51:43;21.37;;;8.65;;
19788;SDS011;10054;59.332;18.244;2022-07-23T00:54:12;22.17;;;8.33;;
19788;SDS011;10054;59.332;18.244;2022-07-23T00:56:42;25.13;;;8.90;;
19788;SDS011;10054;59.332;18.244;2022-07-23T00:59:11;20.80;;;7.37;;
19788;SDS011;10054;59.332;18.244;2022-07-23T01:01:41;20.48;;;8.35;;
19788;SDS011;10054;59.332;18.244;2022-07-23T01:04:15;21.37;;;8.05;;
19788;SDS011;10054;59.332;18.244;2022-07-23T01:06:44;22.40;;;8.07;;
19788;SDS011;10054;59.332;18.244;2022-07-23T01:09:13;26.90;;;9.30;;
19788;SDS011;10054;59.332;18.244;2022-07-23T01:11:43;25.77;;;9.10;;
19788;SDS011;10054;59.332;18.244;2022-07-23T01:14:12;25.57;;;9.53;;
19788;SDS011;10054;59.332;18.244;2022-07-23T01:16:43;27.97;;;10.03;;
19788;SDS011;10054;59.332;18.244;2022-07-23T01:19:13;29.65;;;11.25;;
19788;SDS011;10054;59.332;18.244;2022-07-23T01:21:49;22.53;;;9.77;;
19788;SDS011;10054;59.332;18.244;2022-07-23T01:24:19;28.60;;;11.00;;
19788;SDS011;10054;59.332;18.244;2022-07-23T01:26:52;27.80;;;11.07;;
19788;SDS011;10054;59.332;18.244;2022-07-23T01:29:21;31.10;;;11.73;;
19788;SDS011;10054;59.332;18.244;2022-07-23T01:31:50;29.37;;;10.97;;
19788;SDS011;10054;59.332;18.244;2022-07-23T01:34:19;31.37;;;10.40;;
19788;SDS011;10054;59.332;18.244;2022-07-23T01:36:49;28.17;;;10.63;;
19788;SDS011;10054;59.332;18.244;2022-07-23T01:39:19;32.97;;;11.00;;
19788;SDS011;10054;59.332;18.244;2022-07-23T01:41:49;28.07;;;10.27;;
19788;SDS011;10054;59.332;18.244;2022-07-23T01:44:19;28.53;;;10.03;;
19788;SDS011;10054;59.332;18.244;2022-07-23T01:46:48;32.03;;;10.90;;
19788;SDS011;10054;59.332;18.244;2022-07-23T01:49:18;30.90;;;10.78;;
19788;SDS011;10054;59.332;18.244;2022-07-23T01:51:49;31.40;;;11.07;;
19788;SDS011;10054;59.332;18.244;2022-07-23T01:54:34;27.23;;;10.23;;
19788;SDS011;10054;59.332;18.244;2022-07-23T01:57:05;28.33;;;10.67;;
19788;SDS011;10054;59.332;18.244;2022-07-23T01:59:34;22.83;;;9.37;;
19788;SDS011;10054;59.332;18.244;2022-07-23T02:02:05;25.32;;;9.60;;
19788;SDS011;10054;59.332;18.244;2022-07-23T02:04:34;22.03;;;8.80;;
19788;SDS011;10054;59.332;18.244;2022-07-23T02:07:03;19.70;;;8.30;;
19788;SDS011;10054;59.332;18.244;2022-07-23T02:09:34;18.97;;;7.63;;
19788;SDS011;10054;59.332;18.244;2022-07-23T02:12:03;17.13;;;7.23;;
19788;SDS011;10054;59.332;18.244;2022-07-23T02:14:32;14.53;;;6.37;;
19788;SDS011;10054;59.332;18.244;2022-07-23T02:17:02;13.40;;;6.33;;
19788;SDS011;10054;59.332;18.244;2022-07-23T02:19:30;12.03;;;5.70;;
19788;SDS011;10054;59.332;18.244;2022-07-23T02:22:01;12.43;;;5.90;;
19788;SDS011;10054;59.332;18.244;2022-07-23T02:24:29;10.53;;;5.40;;
19788;SDS011;10054;59.332;18.244;2022-07-23T02:26:58;8.93;;;5.03;;
19788;SDS011;10054;59.332;18.244;2022-07-23T02:29:27;9.77;;;5.40;;
19788;SDS011;10054;59.332;18.244;2022-07-23T02:31:56;10.93;;;5.30;;
19788;SDS011;10054;59.332;18.244;2022-07-23T02:34:25;12.10;;;5.30;;
19788;SDS011;10054;59.332;18.244;2022-07-23T02:36:53;11.87;;;5.07;;
19788;SDS011;10054;59.332;18.244;2022-07-23T02:39:23;10.17;;;5.33;;
19788;SDS011;10054;59.332;18.244;2022-07-23T02:41:51;10.97;;;5.30;;
19788;SDS011;10054;59.332;18.244;2022-07-23T02:44:20;9.83;;;4.80;;
19788;SDS011;10054;59.332;18.244;2022-07-23T02:46:51;10.10;;;4.83;;
19788;SDS011;10054;59.332;18.244;2022-07-23T02:49:20;9.27;;;4.80;;
19788;SDS011;10054;59.332;18.244;2022-07-23T02:51:49;7.57;;;4.50;;
19788;SDS011;10054;59.332;18.244;2022-07-23T02:54:18;9.87;;;5.00;;
19788;SDS011;10054;59.332;18.244;2022-07-23T02:56:48;9.67;;;4.23;;
19788;SDS011;10054;59.332;18.244;2022-07-23T02:59:20;7.07;;;4.00;;
19788;SDS011;10054;59.332;18.244;2022-07-23T03:01:49;7.93;;;3.77;;
19788;SDS011;10054;59.332;18.244;2022-07-23T03:04:18;8.40;;;4.20;;
19788;SDS011;10054;59.332;18.244;2022-07-23T03:06:48;11.90;;;4.83;;
19788;SDS011;10054;59.332;18.244;2022-07-23T03:09:17;7.87;;;4.07;;
19788;SDS011;10054;59.332;18.244;2022-07-23T03:11:46;9.20;;;4.17;;
19788;SDS011;10054;59.332;18.244;2022-07-23T03:14:15;6.03;;;3.50;;
19788;SDS011;10054;59.332;18.244;2022-07-23T03:16:43;7.83;;;3.83;;
19788;SDS011;10054;59.332;18.244;2022-07-23T03:19:12;5.40;;;3.50;;
19788;SDS011;10054;59.332;18.244;2022-07-23T03:21:41;5.27;;;3.40;;
19788;SDS011;10054;59.332;18.244;2022-07-23T03:24:12;7.10;;;3.43;;
19788;SDS011;10054;59.332;18.244;2022-07-23T03:26:41;5.57;;;2.83;;
19788;SDS011;10054;59.332;18.244;2022-07-23T03:29:10;4.13;;;2.90;;
19788;SDS011;10054;59.332;18.244;2022-07-23T03:31:39;4.63;;;2.53;;
19788;SDS011;10054;59.332;18.244;2022-07-23T03:34:08;2.90;;;2.37;;
19788;SDS011;10054;59.332;18.244;2022-07-23T03:36:40;3.43;;;2.47;;
19788;SDS011;10054;59.332;18.244;2022-07-23T03:39:09;2.80;;;2.07;;
19788;SDS011;10054;59.332;18.244;2022-07-23T03:41:38;4.30;;;2.57;;
19788;SDS011;10054;59.332;18.244;2022-07-23T03:44:07;3.53;;;2.23;;
19788;SDS011;10054;59.332;18.244;2022-07-23T03:46:36;4.73;;;2.20;;
19788;SDS011;10054;59.332;18.244;2022-07-23T03:49:08;4.83;;;2.10;;
19788;SDS011;10054;59.332;18.244;2022-07-23T03:51:36;3.40;;;2.17;;
19788;SDS011;10054;59.332;18.244;2022-07-23T03:54:05;3.17;;;2.07;;
19788;SDS011;10054;59.332;18.244;2022-07-23T03:56:34;3.57;;;2.13;;
19788;SDS011;10054;59.332;18.244;2022-07-23T03:59:03;3.40;;;2.10;;
19788;SDS011;10054;59.332;18.244;2022-07-23T04:01:32;3.20;;;1.77;;
19788;SDS011;10054;59.332;18.244;2022-07-23T04:04:02;2.63;;;1.90;;
19788;SDS011;10054;59.332;18.244;2022-07-23T04:06:31;2.83;;;2.00;;
19788;SDS011;10054;59.332;18.244;2022-07-23T04:08:59;2.70;;;1.87;;
19788;SDS011;10054;59.332;18.244;2022-07-23T04:11:30;2.67;;;1.80;;
19788;SDS011;10054;59.332;18.244;2022-07-23T04:14:00;2.30;;;1.60;;
19788;SDS011;10054;59.332;18.244;2022-07-23T04:16:29;1.83;;;1.50;;
19788;SDS011;10054;59.332;18.244;2022-07-23T04:18:58;2.43;;;2.00;;
19788;SDS011;10054;59.332;18.244;2022-07-23T04:21:28;2.43;;;1.90;;
19788;SDS011;10054;59.332;18.244;2022-07-23T04:23:57;2.87;;;1.97;;
19788;SDS011;10054;59.332;18.244;2022-07-23T04:26:27;2.83;;;1.70;;
19788;SDS011;10054;59.332;18.244;2022-07-23T04:28:55;2.70;;;1.73;;
19788;SDS011;10054;59.332;18.244;2022-07-23T04:31:24;1.60;;;1.50;;
19788;SDS011;10054;59.332;18.244;2022-07-23T04:33:53;1.77;;;1.63;;
19788;SDS011;10054;59.332;18.244;2022-07-23T04:36:22;1.80;;;1.50;;
19788;SDS011;10054;59.332;18.244;2022-07-23T04:38:50;1.73;;;1.60;;
19788;SDS011;10054;59.332;18.244;2022-07-23T04:41:20;3.07;;;1.63;;
19788;SDS011;10054;59.332;18.244;2022-07-23T04:43:48;2.40;;;1.60;;
19788;SDS011;10054;59.332;18.244;2022-07-23T04:46:17;1.63;;;1.53;;
19788;SDS011;10054;59.332;18.244;2022-07-23T04:48:47;3.23;;;1.60;;
19788;SDS011;10054;59.332;18.244;2022-07-23T04:51:17;1.57;;;1.43;;
19788;SDS011;10054;59.332;18.244;2022-07-23T04:53:46;2.00;;;1.40;;
19788;SDS011;10054;59.332;18.244;2022-07-23T04:56:16;1.60;;;1.50;;
19788;SDS011;10054;59.332;18.244;2022-07-23T04:58:45;1.77;;;1.67;;
19788;SDS011;10054;59.332;18.244;2022-07-23T05:01:14;2.80;;;1.63;;
19788;SDS011;10054;59.332;18.244;2022-07-23T05:06:24;1.83;;;1.40;;
19788;SDS011;10054;59.332;18.244;2022-07-23T05:08:53;2.60;;;1.50;;
19788;SDS011;10054;59.332;18.244;2022-07-23T05:11:22;1.73;;;1.40;;
19788;SDS011;10054;59.332;18.244;2022-07-23T05:13:51;1.50;;;1.40;;
19788;SDS011;10054;59.332;18.244;2022-07-23T05:16:20;2.77;;;1.57;;
19788;SDS011;10054;59.332;18.244;2022-07-23T05:18:50;1.67;;;1.40;;
19788;SDS011;10054;59.332;18.244;2022-07-23T05:21:20;1.63;;;1.50;;
19788;SDS011;10054;59.332;18.244;2022-07-23T05:23:49;2.03;;;1.50;;
19788;SDS011;10054;59.332;18.244;2022-07-23T05:26:20;1.80;;;1.20;;
19788;SDS011;10054;59.332;18.244;2022-07-23T05:28:49;2.23;;;1.50;;
19788;SDS011;10054;59.332;18.244;2022-07-23T05:31:19;2.00;;;1.30;;
19788;SDS011;10054;59.332;18.244;2022-07-23T05:33:48;2.20;;;1.57;;
19788;SDS011;10054;59.332;18.244;2022-07-23T05:36:17;2.30;;;1.80;;
19788;SDS011;10054;59.332;18.244;2022-07-23T05:38:47;2.07;;;1.50;;
19788;SDS011;10054;59.332;18.244;2022-07-23T05:41:16;4.57;;;1.80;;
19788;SDS011;10054;59.332;18.244;2022-07-23T05:43:45;1.90;;;1.70;;
19788;SDS011;10054;59.332;18.244;2022-07-23T05:46:14;2.27;;;1.80;;
19788;SDS011;10054;59.332;18.244;2022-07-23T05:48:49;1.63;;;1.53;;
19788;SDS011;10054;59.332;18.244;2022-07-23T05:51:35;4.03;;;1.87;;
19788;SDS011;10054;59.332;18.244;2022-07-23T05:54:04;2.63;;;1.73;;
19788;SDS011;10054;59.332;18.244;2022-07-23T05:56:35;3.43;;;1.60;;
19788;SDS011;10054;59.332;18.244;2022-07-23T05:59:04;1.83;;;1.60;;
19788;SDS011;10054;59.332;18.244;2022-07-23T06:01:34;2.27;;;1.70;;
19788;SDS011;10054;59.332;18.244;2022-07-23T06:04:04;1.63;;;1.50;;
19788;SDS011;10054;59.332;18.244;2022-07-23T06:06:34;3.23;;;1.60;;
19788;SDS011;10054;59.332;18.244;2022-07-23T06:09:03;1.57;;;1.47;;
19788;SDS011;10054;59.332;18.244;2022-07-23T06:11:34;1.73;;;1.63;;
19788;SDS011;10054;59.332;18.244;2022-07-23T06:14:03;2.30;;;2.00;;
19788;SDS011;10054;59.332;18.244;2022-07-23T06:16:36;1.83;;;1.60;;
19788;SDS011;10054;59.332;18.244;2022-07-23T06:19:04;3.60;;;1.60;;
19788;SDS011;10054;59.332;18.244;2022-07-23T06:21:33;2.73;;;1.47;;
19788;SDS011;10054;59.332;18.244;2022-07-23T06:24:02;2.40;;;1.60;;
19788;SDS011;10054;59.332;18.244;2022-07-23T06:26:31;2.43;;;1.60;;
19788;SDS011;10054;59.332;18.244;2022-07-23T06:29:00;2.77;;;1.60;;
19788;SDS011;10054;59.332;18.244;2022-07-23T06:31:29;2.30;;;1.63;;
19788;SDS011;10054;59.332;18.244;2022-07-23T06:34:00;2.20;;;1.60;;
19788;SDS011;10054;59.332;18.244;2022-07-23T06:36:47;3.07;;;1.37;;
19788;SDS011;10054;59.332;18.244;2022-07-23T06:39:16;2.00;;;1.50;;
19788;SDS011;10054;59.332;18.244;2022-07-23T06:41:46;1.30;;;1.20;;
19788;SDS011;10054;59.332;18.244;2022-07-23T06:44:16;1.50;;;1.20;;
19788;SDS011;10054;59.332;18.244;2022-07-23T06:46:47;1.57;;;1.20;;
19788;SDS011;10054;59.332;18.244;2022-07-23T06:49:16;1.47;;;1.10;;
19788;SDS011;10054;59.332;18.244;2022-07-23T06:51:44;1.40;;;1.30;;
19788;SDS011;10054;59.332;18.244;2022-07-23T06:54:13;2.27;;;1.17;;
19788;SDS011;10054;59.332;18.244;2022-07-23T06:56:43;1.37;;;1.10;;
19788;SDS011;10054;59.332;18.244;2022-07-23T06:59:11;1.10;;;1.00;;
19788;SDS011;10054;59.332;18.244;2022-07-23T07:01:40;0.90;;;0.90;;
19788;SDS011;10054;59.332;18.244;2022-07-23T07:04:09;1.20;;;1.10;;
19788;SDS011;10054;59.332;18.244;2022-07-23T07:06:37;1.10;;;1.00;;
19788;SDS011;10054;59.332;18.244;2022-07-23T07:09:06;1.10;;;1.10;;
19788;SDS011;10054;59.332;18.244;2022-07-23T07:11:35;1.23;;;1.10;;
19788;SDS011;10054;59.332;18.244;2022-07-23T07:14:04;0.90;;;0.90;;
19788;SDS011;10054;59.332;18.244;2022-07-23T07:16:33;0.93;;;0.93;;
19788;SDS011;10054;59.332;18.244;2022-07-23T07:19:02;1.83;;;1.10;;
19788;SDS011;10054;59.332;18.244;2022-07-23T07:21:30;0.93;;;0.93;;
19788;SDS011;10054;59.332;18.244;2022-07-23T07:23:59;0.80;;;0.80;;
19788;SDS011;10054;59.332;18.244;2022-07-23T07:26:28;0.80;;;0.80;;
19788;SDS011;10054;59.332;18.244;2022-07-23T07:28:57;1.03;;;0.93;;
19788;SDS011;10054;59.332;18.244;2022-07-23T07:31:26;0.97;;;0.90;;
19788;SDS011;10054;59.332;18.244;2022-07-23T07:33:55;0.70;;;0.70;;
19788;SDS011;10054;59.332;18.244;2022-07-23T07:36:23;0.90;;;0.90;;
19788;SDS011;10054;59.332;18.244;2022-07-23T07:38:52;0.90;;;0.90;;
19788;SDS011;10054;59.332;18.244;2022-07-23T07:41:22;1.00;;;0.93;;
19788;SDS011;10054;59.332;18.244;2022-07-23T07:43:52;0.80;;;0.80;;
19788;SDS011;10054;59.332;18.244;2022-07-23T07:46:21;0.80;;;0.80;;
19788;SDS011;10054;59.332;18.244;2022-07-23T07:48:50;0.90;;;0.90;;
19788;SDS011;10054;59.332;18.244;2022-07-23T07:51:19;1.00;;;0.90;;
19788;SDS011;10054;59.332;18.244;2022-07-23T07:53:50;2.30;;;0.90;;
19788;SDS011;10054;59.332;18.244;2022-07-23T07:56:20;0.90;;;0.90;;
19788;SDS011;10054;59.332;18.244;2022-07-23T07:58:49;1.17;;;0.90;;
19788;SDS011;10054;59.332;18.244;2022-07-23T08:01:18;0.80;;;0.80;;
19788;SDS011;10054;59.332;18.244;2022-07-23T08:03:47;1.42;;;0.88;;
19788;SDS011;10054;59.332;18.244;2022-07-23T08:06:16;0.85;;;0.85;;
19788;SDS011;10054;59.332;18.244;2022-07-23T08:08:45;0.80;;;0.80;;
19788;SDS011;10054;59.332;18.244;2022-07-23T08:11:14;0.90;;;0.90;;
19788;SDS011;10054;59.332;18.244;2022-07-23T08:13:43;5.78;;;0.90;;
19788;SDS011;10054;59.332;18.244;2022-07-23T08:16:12;0.70;;;0.70;;
19788;SDS011;10054;59.332;18.244;2022-07-23T08:18:41;0.80;;;0.80;;
19788;SDS011;10054;59.332;18.244;2022-07-23T08:21:10;0.70;;;0.70;;
19788;SDS011;10054;59.332;18.244;2022-07-23T08:23:39;0.72;;;0.72;;
19788;SDS011;10054;59.332;18.244;2022-07-23T08:26:08;0.80;;;0.80;;
19788;SDS011;10054;59.332;18.244;2022-07-23T08:28:36;0.70;;;0.70;;
19788;SDS011;10054;59.332;18.244;2022-07-23T08:31:05;0.80;;;0.80;;
19788;SDS011;10054;59.332;18.244;2022-07-23T08:33:35;0.77;;;0.77;;
19788;SDS011;10054;59.332;18.244;2022-07-23T08:36:05;0.72;;;0.72;;
19788;SDS011;10054;59.332;18.244;2022-07-23T08:38:46;0.80;;;0.80;;
19788;SDS011;10054;59.332;18.244;2022-07-23T08:41:15;0.75;;;0.75;;
19788;SDS011;10054;59.332;18.244;2022-07-23T08:43:44;1.00;;;0.90;;
19788;SDS011;10054;59.332;18.244;2022-07-23T08:46:13;1.27;;;1.12;;
19788;SDS011;10054;59.332;18.244;2022-07-23T08:48:44;0.70;;;0.70;;
19788;SDS011;10054;59.332;18.244;2022-07-23T08:51:15;0.65;;;0.65;;
19788;SDS011;10054;59.332;18.244;2022-07-23T08:53:45;0.70;;;0.70;;
19788;SDS011;10054;59.332;18.244;2022-07-23T08:56:14;0.80;;;0.80;;
19788;SDS011;10054;59.332;18.244;2022-07-23T08:58:42;0.93;;;0.70;;
19788;SDS011;10054;59.332;18.244;2022-07-23T09:01:11;0.70;;;0.70;;
19788;SDS011;10054;59.332;18.244;2022-07-23T09:03:41;0.70;;;0.70;;
19788;SDS011;10054;59.332;18.244;2022-07-23T09:06:11;0.80;;;0.80;;
19788;SDS011;10054;59.332;18.244;2022-07-23T09:08:41;1.00;;;1.00;;
19788;SDS011;10054;59.332;18.244;2022-07-23T09:11:15;0.90;;;0.90;;
19788;SDS011;10054;59.332;18.244;2022-07-23T09:19:01;0.75;;;0.75;;
19788;SDS011;10054;59.332;18.244;2022-07-23T09:21:35;0.60;;;0.60;;
19788;SDS011;10054;59.332;18.244;2022-07-23T09:24:06;0.60;;;0.60;;
19788;SDS011;10054;59.332;18.244;2022-07-23T09:26:37;0.80;;;0.80;;
19788;SDS011;10054;59.332;18.244;2022-07-23T09:29:09;0.70;;;0.70;;
19788;SDS011;10054;59.332;18.244;2022-07-23T09:31:58;0.60;;;0.60;;
19788;SDS011;10054;59.332;18.244;2022-07-23T09:34:36;0.70;;;0.70;;
19788;SDS011;10054;59.332;18.244;2022-07-23T09:37:11;0.75;;;0.70;;
19788;SDS011;10054;59.332;18.244;2022-07-23T09:39:45;0.60;;;0.60;;
19788;SDS011;10054;59.332;18.244;2022-07-23T09:42:22;0.70;;;0.70;;
19788;SDS011;10054;59.332;18.244;2022-07-23T09:44:53;0.80;;;0.80;;
19788;SDS011;10054;59.332;18.244;2022-07-23T09:47:25;1.17;;;1.17;;
19788;SDS011;10054;59.332;18.244;2022-07-23T09:50:01;1.25;;;0.90;;
19788;SDS011;10054;59.332;18.244;2022-07-23T09:52:33;0.85;;;0.85;;
19788;SDS011;10054;59.332;18.244;2022-07-23T09:55:04;0.70;;;0.70;;
19788;SDS011;10054;59.332;18.244;2022-07-23T09:57:34;0.80;;;0.80;;
19788;SDS011;10054;59.332;18.244;2022-07-23T10:00:03;0.67;;;0.67;;
19788;SDS011;10054;59.332;18.244;2022-07-23T10:02:35;0.70;;;0.70;;
19788;SDS011;10054;59.332;18.244;2022-07-23T10:05:06;0.62;;;0.62;;
19788;SDS011;10054;59.332;18.244;2022-07-23T10:07:46;0.60;;;0.60;;
19788;SDS011;10054;59.332;18.244;2022-07-23T10:10:33;0.60;;;0.60;;
19788;SDS011;10054;59.332;18.244;2022-07-23T10:13:16;1.17;;;0.60;;
19788;SDS011;10054;59.332;18.244;2022-07-23T10:16:03;0.43;;;0.43;;
19788;SDS011;10054;59.332;18.244;2022-07-23T10:18:32;0.60;;;0.60;;
19788;SDS011;10054;59.332;18.244;2022-07-23T10:21:03;0.50;;;0.50;;
19788;SDS011;10054;59.332;18.244;2022-07-23T10:23:47;0.60;;;0.60;;
19788;SDS011;10054;59.332;18.244;2022-07-23T10:29:10;0.50;;;0.50;;
19788;SDS011;10054;59.332;18.244;2022-07-23T10:31:46;0.60;;;0.60;;
19788;SDS011;10054;59.332;18.244;2022-07-23T10:34:24;0.50;;;0.50;;
19788;SDS011;10054;59.332;18.244;2022-07-23T10:37:12;0.60;;;0.60;;
19788;SDS011;10054;59.332;18.244;2022-07-23T10:39:46;0.50;;;0.50;;
19788;SDS011;10054;59.332;18.244;2022-07-23T10:42:16;0.57;;;0.50;;
19788;SDS011;10054;59.332;18.244;2022-07-23T10:44:46;0.60;;;0.60;;
19788;SDS011;10054;59.332;18.244;2022-07-23T10:47:27;0.60;;;0.60;;
19788;SDS011;10054;59.332;18.244;2022-07-23T10:50:17;0.50;;;0.50;;
19788;SDS011;10054;59.332;18.244;2022-07-23T10:55:41;0.60;;;0.60;;
19788;SDS011;10054;59.332;18.244;2022-07-23T10:58:11;0.60;;;0.60;;
19788;SDS011;10054;59.332;18.244;2022-07-23T11:00:42;0.60;;;0.60;;
19788;SDS011;10054;59.332;18.244;2022-07-23T11:03:27;0.50;;;0.50;;
19788;SDS011;10054;59.332;18.244;2022-07-23T11:05:45;0.57;;;0.57;;
19788;SDS011;10054;59.332;18.244;2022-07-23T11:08:18;0.67;;;0.60;;
19788;SDS011;10054;59.332;18.244;2022-07-23T11:11:07;1.07;;;0.65;;
19788;SDS011;10054;59.332;18.244;2022-07-23T11:13:25;0.70;;;0.70;;
19788;SDS011;10054;59.332;18.244;2022-07-23T11:32:02;0.70;;;0.70;;
19788;SDS011;10054;59.332;18.244;2022-07-23T11:34:33;1.17;;;0.63;;
19788;SDS011;10054;59.332;18.244;2022-07-23T11:37:04;0.70;;;0.70;;
19788;SDS011;10054;59.332;18.244;2022-07-23T11:39:34;1.07;;;0.62;;
19788;SDS011;10054;59.332;18.244;2022-07-23T11:42:05;2.63;;;0.80;;
19788;SDS011;10054;59.332;18.244;2022-07-23T11:44:35;0.60;;;0.60;;
19788;SDS011;10054;59.332;18.244;2022-07-23T11:47:09;0.60;;;0.60;;
19788;SDS011;10054;59.332;18.244;2022-07-23T11:49:54;0.50;;;0.50;;
19788;SDS011;10054;59.332;18.244;2022-07-23T11:52:24;0.90;;;0.70;;
19788;SDS011;10054;59.332;18.244;2022-07-23T11:55:01;1.13;;;0.70;;
19788;SDS011;10054;59.332;18.244;2022-07-23T11:57:29;1.67;;;0.70;;
19788;SDS011;10054;59.332;18.244;2022-07-23T12:00:13;1.10;;;0.70;;
19788;SDS011;10054;59.332;18.244;2022-07-23T12:02:45;0.70;;;0.70;;
19788;SDS011;10054;59.332;18.244;2022-07-23T12:05:26;0.70;;;0.70;;
19788;SDS011;10054;59.332;18.244;2022-07-23T12:07:52;0.67;;;0.67;;
19788;SDS011;10054;59.332;18.244;2022-07-23T12:10:24;1.03;;;0.70;;
19788;SDS011;10054;59.332;18.244;2022-07-23T12:13:05;1.70;;;1.00;;
19788;SDS011;10054;59.332;18.244;2022-07-23T12:15:33;0.83;;;0.70;;
19788;SDS011;10054;59.332;18.244;2022-07-23T12:18:06;1.13;;;0.90;;
19788;SDS011;10054;59.332;18.244;2022-07-23T12:20:38;1.13;;;0.80;;
19788;SDS011;10054;59.332;18.244;2022-07-23T12:23:09;0.83;;;0.83;;
19788;SDS011;10054;59.332;18.244;2022-07-23T12:25:41;0.80;;;0.70;;
19788;SDS011;10054;59.332;18.244;2022-07-23T12:28:12;1.43;;;0.90;;
19788;SDS011;10054;59.332;18.244;2022-07-23T12:30:44;0.70;;;0.70;;
19788;SDS011;10054;59.332;18.244;2022-07-23T12:33:15;0.97;;;0.97;;
19788;SDS011;10054;59.332;18.244;2022-07-23T12:35:52;1.03;;;0.90;;
19788;SDS011;10054;59.332;18.244;2022-07-23T12:38:23;1.17;;;0.77;;
19788;SDS011;10054;59.332;18.244;2022-07-23T12:40:54;2.30;;;0.87;;
19788;SDS011;10054;59.332;18.244;2022-07-23T12:43:29;1.07;;;0.90;;
19788;SDS011;10054;59.332;18.244;2022-07-23T12:48:50;1.13;;;0.90;;
19788;SDS011;10054;59.332;18.244;2022-07-23T12:51:24;0.90;;;0.90;;
19788;SDS011;10054;59.332;18.244;2022-07-23T12:53:56;1.33;;;1.00;;
19788;SDS011;10054;59.332;18.244;2022-07-23T12:56:33;0.90;;;0.90;;
19788;SDS011;10054;59.332;18.244;2022-07-23T13:01:37;1.80;;;1.00;;
19788;SDS011;10054;59.332;18.244;2022-07-23T13:04:19;1.57;;;1.10;;
19788;SDS011;10054;59.332;18.244;2022-07-23T13:06:50;2.03;;;1.00;;
19788;SDS011;10054;59.332;18.244;2022-07-23T13:09:26;1.10;;;1.10;;
19788;SDS011;10054;59.332;18.244;2022-07-23T13:11:56;1.60;;;1.03;;
19788;SDS011;10054;59.332;18.244;2022-07-23T13:14:26;1.00;;;0.90;;
19788;SDS011;10054;59.332;18.244;2022-07-23T13:16:56;1.00;;;1.00;;
19788;SDS011;10054;59.332;18.244;2022-07-23T13:19:25;1.00;;;1.00;;
19788;SDS011;10054;59.332;18.244;2022-07-23T13:21:54;1.00;;;1.00;;
19788;SDS011;10054;59.332;18.244;2022-07-23T13:24:22;1.57;;;1.00;;
19788;SDS011;10054;59.332;18.244;2022-07-23T13:26:51;0.90;;;0.90;;
19788;SDS011;10054;59.332;18.244;2022-07-23T13:29:20;1.03;;;1.00;;
19788;SDS011;10054;59.332;18.244;2022-07-23T13:31:50;0.90;;;0.90;;
19788;SDS011;10054;59.332;18.244;2022-07-23T13:34:18;0.90;;;0.90;;
19788;SDS011;10054;59.332;18.244;2022-07-23T13:36:47;1.13;;;1.00;;
19788;SDS011;10054;59.332;18.244;2022-07-23T13:39:16;1.10;;;0.97;;
19788;SDS011;10054;59.332;18.244;2022-07-23T13:41:45;0.90;;;0.90;;
19788;SDS011;10054;59.332;18.244;2022-07-23T13:44:14;1.00;;;0.90;;
19788;SDS011;10054;59.332;18.244;2022-07-23T13:46:43;0.80;;;0.80;;
19788;SDS011;10054;59.332;18.244;2022-07-23T13:49:11;0.83;;;0.83;;
19788;SDS011;10054;59.332;18.244;2022-07-23T13:51:40;0.90;;;0.90;;
19788;SDS011;10054;59.332;18.244;2022-07-23T13:54:09;0.90;;;0.90;;
19788;SDS011;10054;59.332;18.244;2022-07-23T13:56:37;1.03;;;1.00;;
19788;SDS011;10054;59.332;18.244;2022-07-23T13:59:06;0.87;;;0.87;;
19788;SDS011;10054;59.332;18.244;2022-07-23T14:01:35;0.90;;;0.90;;
19788;SDS011;10054;59.332;18.244;2022-07-23T14:04:04;1.00;;;0.90;;
19788;SDS011;10054;59.332;18.244;2022-07-23T14:06:33;1.80;;;0.90;;
19788;SDS011;10054;59.332;18.244;2022-07-23T14:09:02;1.20;;;1.03;;
19788;SDS011;10054;59.332;18.244;2022-07-23T14:11:31;0.90;;;0.90;;
19788;SDS011;10054;59.332;18.244;2022-07-23T14:14:00;0.87;;;0.87;;
19788;SDS011;10054;59.332;18.244;2022-07-23T14:16:29;1.53;;;0.97;;
19788;SDS011;10054;59.332;18.244;2022-07-23T14:18:57;1.10;;;1.00;;
19788;SDS011;10054;59.332;18.244;2022-07-23T14:21:26;2.27;;;1.17;;
19788;SDS011;10054;59.332;18.244;2022-07-23T14:23:55;1.00;;;1.00;;
19788;SDS011;10054;59.332;18.244;2022-07-23T14:26:24;1.00;;;1.00;;
19788;SDS011;10054;59.332;18.244;2022-07-23T14:28:52;1.27;;;0.95;;
19788;SDS011;10054;59.332;18.244;2022-07-23T14:31:21;1.13;;;0.97;;
19788;SDS011;10054;59.332;18.244;2022-07-23T14:33:50;0.93;;;0.93;;
19788;SDS011;10054;59.332;18.244;2022-07-23T14:36:19;2.15;;;1.10;;
19788;SDS011;10054;59.332;18.244;2022-07-23T14:38:48;1.10;;;1.00;;
19788;SDS011;10054;59.332;18.244;2022-07-23T14:41:17;2.15;;;1.00;;
19788;SDS011;10054;59.332;18.244;2022-07-23T14:43:46;0.80;;;0.80;;
19788;SDS011;10054;59.332;18.244;2022-07-23T14:46:15;1.00;;;1.00;;
19788;SDS011;10054;59.332;18.244;2022-07-23T14:48:44;0.90;;;0.90;;
19788;SDS011;10054;59.332;18.244;2022-07-23T14:51:12;1.33;;;1.23;;
19788;SDS011;10054;59.332;18.244;2022-07-23T14:53:41;2.67;;;1.10;;
19788;SDS011;10054;59.332;18.244;2022-07-23T14:56:09;1.13;;;1.03;;
19788;SDS011;10054;59.332;18.244;2022-07-23T14:58:40;1.60;;;1.10;;
19788;SDS011;10054;59.332;18.244;2022-07-23T15:01:09;3.60;;;1.20;;
19788;SDS011;10054;59.332;18.244;2022-07-23T15:03:38;1.37;;;1.20;;
19788;SDS011;10054;59.332;18.244;2022-07-23T15:06:07;3.00;;;1.80;;
19788;SDS011;10054;59.332;18.244;2022-07-23T15:08:35;1.20;;;1.20;;
19788;SDS011;10054;59.332;18.244;2022-07-23T15:11:04;1.60;;;1.30;;
19788;SDS011;10054;59.332;18.244;2022-07-23T15:13:36;1.37;;;1.27;;
19788;SDS011;10054;59.332;18.244;2022-07-23T15:16:05;1.00;;;1.00;;
19788;SDS011;10054;59.332;18.244;2022-07-23T15:18:34;2.07;;;1.23;;
19788;SDS011;10054;59.332;18.244;2022-07-23T15:21:03;1.30;;;1.20;;
19788;SDS011;10054;59.332;18.244;2022-07-23T15:23:33;1.30;;;1.20;;
19788;SDS011;10054;59.332;18.244;2022-07-23T15:26:01;1.70;;;1.33;;